Time;durP1;ratioP1;P1;durP2;ratioP2;P2;SDS_P1;SDS_P2;PMS_P1;PMS_P2;Temp;Humidity;BMP_temperature;BMP_pressure;BME280_temperature;BME280_humidity;BME280_pressure;Samples;Min_cycle;Max_cycle;Signal;HPM_P1;HPM_P2
2022/07/14 05:36:06;;;;;;;0.20;0.10;;;;;;;;;;6156988;23;20021;-92
2022/07/14 05:38:41;;;;;;;0.20;0.10;;;;;;;;;;6128486;23;20040;-91
2022/07/14 05:41:07;;;;;;;0.20;0.10;;;;;;;;;;6127077;23;20094;-92
2022/07/14 05:43:39;;;;;;;0.20;0.10;;;;;;;;;;6128678;23;20523;-91
2022/07/14 05:46:30;;;;;;;0.20;0.10;;;;;;;;;;6130412;23;20709;-92
2022/07/14 05:49:16;;;;;;;0.20;0.10;;;;;;;;;;6153860;23;20028;-92
2022/07/14 05:51:45;;;;;;;0.20;0.10;;;;;;;;;;6102596;23;20018;-91
2022/07/14 05:54:27;;;;;;;;;;;;;;;;;;;;;
2022/07/14 05:57:03;;;;;;;0.30;0.20;;;;;;;;;;6153393;23;20016;-92
2022/07/14 05:59:31;;;;;;;0.20;0.10;;;;;;;;;;6128851;23;20101;-92
2022/07/14 06:02:00;;;;;;;0.20;0.10;;;;;;;;;;6129406;23;20654;-91
2022/07/14 06:08:06;;;;;;;0.20;0.10;;;;;;;;;;6017934;23;20514;-91
2022/07/14 06:10:35;;;;;;;0.20;0.10;;;;;;;;;;6017424;23;20055;-90
2022/07/14 06:13:17;;;;;;;0.20;0.10;;;;;;;;;;6081726;23;20024;-91
2022/07/14 06:15:56;;;;;;;0.20;0.10;;;;;;;;;;6130070;23;20022;-92
2022/07/14 06:18:27;;;;;;;0.20;0.10;;;;;;;;;;6126804;23;20013;-91
2022/07/14 06:20:55;;;;;;;0.20;0.10;;;;;;;;;;6128180;23;20010;-91
2022/07/14 06:24:02;;;;;;;;;;;;;;;;;;;;;
2022/07/14 06:27:03;;;;;;;0.20;0.10;;;;;;;;;;6129235;23;20048;-92
2022/07/14 06:29:38;;;;;;;0.20;0.17;;;;;;;;;;6132155;23;20018;-91
2022/07/14 06:32:24;;;;;;;0.20;0.10;;;;;;;;;;6130330;23;20017;-92
2022/07/14 06:34:54;;;;;;;0.20;0.10;;;;;;;;;;6134512;23;20072;-92
2022/07/14 06:38:07;;;;;;;0.20;0.10;;;;;;;;;;6140998;23;20006;-92
2022/07/14 06:41:03;;;;;;;0.20;0.10;;;;;;;;;;6132872;23;20426;-93
2022/07/14 06:43:35;;;;;;;0.20;0.10;;;;;;;;;;6138695;23;20017;-91
2022/07/14 06:46:07;;;;;;;0.20;0.10;;;;;;;;;;6133627;23;20705;-91
2022/07/14 06:49:14;;;;;;;0.20;0.10;;;;;;;;;;6130853;23;20021;-92
2022/07/14 07:17:55;;;;;;;0.20;0.10;;;;;;;;;;6135983;23;20461;-94
2022/07/14 07:20:55;;;;;;;0.20;0.10;;;;;;;;;;6075466;23;20063;-93
2022/07/14 07:27:17;;;;;;;0.20;0.10;;;;;;;;;;6029550;23;20512;-92
2022/07/14 07:33:10;;;;;;;0.20;0.10;;;;;;;;;;5931200;23;20019;-94
2022/07/14 07:35:55;;;;;;;;;;;;;;;;;;;;;
2022/07/14 07:38:36;;;;;;;0.20;0.10;;;;;;;;;;6045468;23;20054;-92
2022/07/14 07:41:02;;;;;;;0.20;0.10;;;;;;;;;;6019246;23;20023;-92
2022/07/14 07:43:49;;;;;;;0.20;0.10;;;;;;;;;;6085007;23;20056;-92
2022/07/14 07:46:15;;;;;;;0.20;0.10;;;;;;;;;;6078016;23;20470;-91
2022/07/14 07:48:41;;;;;;;0.20;0.10;;;;;;;;;;6078784;23;20470;-92
2022/07/14 07:51:35;;;;;;;0.20;0.10;;;;;;;;;;6087681;23;20029;-93
2022/07/14 07:54:05;;;;;;;0.20;0.10;;;;;;;;;;6084599;23;20115;-93
2022/07/14 07:57:03;;;;;;;0.20;0.10;;;;;;;;;;6063906;23;20020;-92
2022/07/14 07:59:51;;;;;;;0.20;0.10;;;;;;;;;;6084840;23;20017;-93
2022/07/14 08:07:04;;;;;;;;;;;;;;;;;;;;;
2022/07/14 08:51:13;;;;;;;0.20;0.10;;;;;;;;;;6126257;23;20471;-91
2022/07/14 16:17:22;;;;;;;0.20;0.10;;;;;;;;;;6132753;23;20022;-89
2022/07/14 16:19:48;;;;;;;0.20;0.10;;;;;;;;;;6061989;23;20014;-88
2022/07/14 16:22:15;;;;;;;0.20;0.10;;;;;;;;;;6040029;23;20025;-89
2022/07/14 16:24:41;;;;;;;0.20;0.10;;;;;;;;;;6061254;23;20568;-88
2022/07/14 16:27:07;;;;;;;0.20;0.10;;;;;;;;;;6038598;23;20076;-90
2022/07/14 16:29:33;;;;;;;0.20;0.10;;;;;;;;;;6039780;23;20359;-89
2022/07/14 16:32:00;;;;;;;0.20;0.10;;;;;;;;;;6036570;23;20020;-91
2022/07/14 16:34:26;;;;;;;0.20;0.10;;;;;;;;;;6060079;23;20024;-88
2022/07/14 16:36:52;;;;;;;0.20;0.10;;;;;;;;;;6034973;23;20021;-87
2022/07/14 16:39:18;;;;;;;0.20;0.10;;;;;;;;;;6035372;23;20018;-88
2022/07/14 16:41:44;;;;;;;0.20;0.10;;;;;;;;;;6036816;23;20383;-87
2022/07/14 16:44:10;;;;;;;0.20;0.10;;;;;;;;;;6038981;23;20361;-89
2022/07/14 16:46:36;;;;;;;0.20;0.10;;;;;;;;;;6038001;23;20021;-90
2022/07/14 16:49:03;;;;;;;0.20;0.10;;;;;;;;;;6065608;23;20133;-90
2022/07/14 16:51:29;;;;;;;0.20;0.10;;;;;;;;;;6065854;23;20022;-87
2022/07/14 16:53:56;;;;;;;0.20;0.10;;;;;;;;;;6060058;23;20349;-89
2022/07/14 16:56:25;;;;;;;0.20;0.10;;;;;;;;;;6064794;23;20328;-89
2022/07/14 16:58:52;;;;;;;0.20;0.10;;;;;;;;;;6063065;23;20510;-89
2022/07/14 17:01:18;;;;;;;0.20;0.10;;;;;;;;;;6090442;23;20088;-88
2022/07/14 17:03:44;;;;;;;0.20;0.10;;;;;;;;;;6041655;23;20026;-89
2022/07/14 17:06:19;;;;;;;0.20;0.10;;;;;;;;;;6039771;23;20021;-89
2022/07/14 17:08:46;;;;;;;0.20;0.10;;;;;;;;;;6042120;23;20017;-92
2022/07/14 17:11:12;;;;;;;0.20;0.10;;;;;;;;;;6064404;23;20600;-90
2022/07/14 17:13:38;;;;;;;0.20;0.10;;;;;;;;;;6038912;23;20022;-88
2022/07/14 17:16:05;;;;;;;0.20;0.10;;;;;;;;;;6039496;23;20581;-88
2022/07/14 17:18:32;;;;;;;0.20;0.10;;;;;;;;;;6056739;23;20010;-88
2022/07/14 17:20:58;;;;;;;0.20;0.10;;;;;;;;;;6089424;23;20024;-89
2022/07/14 17:23:24;;;;;;;0.20;0.10;;;;;;;;;;6066251;23;20018;-89
2022/07/14 17:25:51;;;;;;;0.20;0.10;;;;;;;;;;6090154;23;20018;-87
2022/07/14 17:28:17;;;;;;;0.20;0.10;;;;;;;;;;6064984;23;20092;-90
2022/07/14 17:30:44;;;;;;;0.20;0.10;;;;;;;;;;6090906;23;20060;-90
2022/07/14 17:33:11;;;;;;;0.20;0.10;;;;;;;;;;6068139;23;20018;-88
2022/07/14 17:35:37;;;;;;;0.20;0.10;;;;;;;;;;6089410;23;20018;-88
2022/07/14 17:38:03;;;;;;;0.20;0.10;;;;;;;;;;6090257;23;20010;-90
2022/07/14 17:40:30;;;;;;;0.57;0.57;;;;;;;;;;6066802;23;20014;-88
2022/07/14 17:42:56;;;;;;;0.20;0.10;;;;;;;;;;6091574;23;20128;-88
2022/07/14 17:45:22;;;;;;;0.20;0.10;;;;;;;;;;6067001;23;20131;-90
2022/07/14 17:47:48;;;;;;;0.20;0.10;;;;;;;;;;6067125;23;20074;-89
2022/07/14 17:50:14;;;;;;;0.20;0.10;;;;;;;;;;6090360;23;20297;-87
2022/07/14 17:52:40;;;;;;;0.20;0.10;;;;;;;;;;6070284;23;20018;-89
2022/07/14 17:55:07;;;;;;;0.20;0.10;;;;;;;;;;6067887;23;20010;-88
2022/07/14 17:57:34;;;;;;;0.20;0.10;;;;;;;;;;6092496;23;20018;-90
2022/07/14 18:00:00;;;;;;;0.20;0.10;;;;;;;;;;6068069;23;20020;-88
2022/07/14 18:02:26;;;;;;;0.20;0.10;;;;;;;;;;6089533;23;20022;-90
2022/07/14 18:04:53;;;;;;;0.20;0.10;;;;;;;;;;6069146;23;20485;-89
2022/07/14 18:07:22;;;;;;;0.20;0.10;;;;;;;;;;6091752;23;20104;-88
2022/07/14 18:09:48;;;;;;;0.20;0.10;;;;;;;;;;6091490;23;20028;-91
2022/07/14 18:12:14;;;;;;;0.20;0.15;;;;;;;;;;6093453;23;20096;-89
2022/07/14 18:14:40;;;;;;;0.20;0.10;;;;;;;;;;6117893;23;20010;-88
2022/07/14 18:17:06;;;;;;;0.20;0.10;;;;;;;;;;6093577;23;20145;-88
2022/07/14 18:19:40;;;;;;;0.20;0.10;;;;;;;;;;6067935;23;20049;-88
2022/07/14 18:22:06;;;;;;;0.20;0.10;;;;;;;;;;6068602;23;20014;-87
2022/07/14 18:24:32;;;;;;;0.20;0.10;;;;;;;;;;6070354;23;20017;-87
2022/07/14 18:26:58;;;;;;;0.20;0.10;;;;;;;;;;6070175;23;20049;-88
2022/07/14 18:29:27;;;;;;;0.20;0.10;;;;;;;;;;6070991;23;20074;-89
2022/07/14 18:31:53;;;;;;;0.20;0.10;;;;;;;;;;6047721;23;20018;-88
2022/07/14 18:34:19;;;;;;;0.20;0.10;;;;;;;;;;6071609;23;20009;-89
2022/07/14 18:36:46;;;;;;;0.20;0.10;;;;;;;;;;6046892;23;20013;-89
2022/07/14 18:39:12;;;;;;;0.20;0.10;;;;;;;;;;6047731;23;20045;-88
2022/07/14 18:41:43;;;;;;;0.20;0.17;;;;;;;;;;6046397;23;20458;-86
2022/07/14 18:44:12;;;;;;;0.20;0.10;;;;;;;;;;6070846;23;20014;-90
2022/07/14 18:46:58;;;;;;;0.20;0.10;;;;;;;;;;6070476;23;20104;-91
2022/07/14 18:49:27;;;;;;;0.20;0.10;;;;;;;;;;6070944;23;20021;-88
2022/07/14 18:52:14;;;;;;;0.20;0.10;;;;;;;;;;6047221;23;20020;-89
2022/07/14 18:54:43;;;;;;;0.20;0.10;;;;;;;;;;6071271;23;20069;-90
2022/07/14 18:57:16;;;;;;;0.20;0.10;;;;;;;;;;6070966;23;20049;-89
2022/07/14 18:59:45;;;;;;;0.20;0.10;;;;;;;;;;6072289;23;20448;-91
2022/07/14 19:02:11;;;;;;;1.00;0.38;;;;;;;;;;6069906;23;20050;-91
2022/07/14 19:04:45;;;;;;;0.20;0.10;;;;;;;;;;6071253;23;20014;-89
2022/07/14 19:07:14;;;;;;;0.20;0.10;;;;;;;;;;6048357;23;20018;-88
2022/07/14 19:09:40;;;;;;;0.20;0.10;;;;;;;;;;6071148;23;20022;-89
2022/07/14 19:12:09;;;;;;;0.20;0.10;;;;;;;;;;6047473;23;20351;-88
2022/07/14 19:14:45;;;;;;;;;;;;;;;;;;;;;
2022/07/14 19:17:15;;;;;;;0.20;0.10;;;;;;;;;;6092685;23;20018;-89
2022/07/14 19:19:43;;;;;;;0.20;0.10;;;;;;;;;;6068375;23;20014;-89
2022/07/14 19:22:20;;;;;;;0.20;0.10;;;;;;;;;;6069731;23;20013;-89
2022/07/14 19:24:47;;;;;;;0.20;0.10;;;;;;;;;;6070387;23;20018;-90
2022/07/14 19:27:16;;;;;;;0.20;0.10;;;;;;;;;;6070642;23;20018;-89
2022/07/14 19:29:43;;;;;;;0.20;0.10;;;;;;;;;;6044590;23;20351;-88
2022/07/14 19:32:09;;;;;;;0.20;0.10;;;;;;;;;;6064900;23;20089;-89
2022/07/14 19:34:38;;;;;;;0.20;0.10;;;;;;;;;;6045832;23;20103;-89
2022/07/14 19:37:14;;;;;;;0.32;0.20;;;;;;;;;;6068602;23;20495;-89
2022/07/14 19:39:43;;;;;;;0.20;0.10;;;;;;;;;;6067571;23;20413;-89
2022/07/14 19:42:09;;;;;;;0.20;0.00;;;;;;;;;;6068235;23;20418;-89
2022/07/14 19:44:51;;;;;;;0.20;0.10;;;;;;;;;;6069331;23;20016;-91
2022/07/14 19:47:17;;;;;;;0.20;0.10;;;;;;;;;;6070905;23;20018;-90
2022/07/14 19:50:08;;;;;;;0.20;0.10;;;;;;;;;;6069574;23;20022;-89
2022/07/14 19:52:58;;;;;;;0.20;0.10;;;;;;;;;;6069509;23;20014;-89
2022/07/14 19:55:26;;;;;;;0.20;0.10;;;;;;;;;;6072667;23;20025;-90
2022/07/14 19:57:53;;;;;;;0.20;0.10;;;;;;;;;;6046940;23;20092;-90
2022/07/14 20:00:21;;;;;;;0.20;0.10;;;;;;;;;;6044970;23;20412;-89
2022/07/14 20:02:50;;;;;;;0.20;0.10;;;;;;;;;;6068770;23;20438;-89
2022/07/14 20:05:17;;;;;;;0.20;0.10;;;;;;;;;;6044676;23;20125;-90
2022/07/14 20:07:48;;;;;;;0.20;0.10;;;;;;;;;;6065891;23;20018;-90
2022/07/14 20:10:17;;;;;;;0.20;0.10;;;;;;;;;;6065007;23;20022;-90
2022/07/14 20:12:44;;;;;;;0.20;0.10;;;;;;;;;;6068036;23;20475;-90
2022/07/14 20:15:10;;;;;;;0.20;0.10;;;;;;;;;;6065959;23;20451;-89
2022/07/14 20:17:36;;;;;;;0.20;0.10;;;;;;;;;;6044018;23;20078;-89
2022/07/14 20:20:03;;;;;;;0.20;0.10;;;;;;;;;;6093406;23;20065;-90
2022/07/14 20:22:29;;;;;;;0.20;0.10;;;;;;;;;;6092876;23;20029;-89
2022/07/14 20:24:55;;;;;;;0.20;0.10;;;;;;;;;;6091735;23;20392;-90
2022/07/14 20:33:06;;;;;;;0.20;0.10;;;;;;;;;;6096287;23;20341;-89
2022/07/14 20:35:32;;;;;;;0.20;0.10;;;;;;;;;;6078361;23;20358;-89
2022/07/14 20:37:58;;;;;;;0.20;0.10;;;;;;;;;;6079069;23;20399;-88
2022/07/14 20:40:24;;;;;;;0.20;0.10;;;;;;;;;;6085013;23;20054;-90
2022/07/14 20:42:51;;;;;;;0.20;0.10;;;;;;;;;;6086479;23;20060;-90
2022/07/14 20:45:18;;;;;;;0.20;0.10;;;;;;;;;;6088134;23;20022;-89
2022/07/14 20:47:44;;;;;;;0.20;0.10;;;;;;;;;;6092010;23;20137;-89
2022/07/14 20:50:10;;;;;;;0.20;0.10;;;;;;;;;;6067773;23;20022;-89
2022/07/14 20:52:37;;;;;;;0.20;0.10;;;;;;;;;;6066944;23;20018;-89
2022/07/14 20:55:03;;;;;;;0.20;0.10;;;;;;;;;;6095171;23;20104;-89
2022/07/14 20:57:29;;;;;;;0.20;0.10;;;;;;;;;;6092356;23;20010;-88
2022/07/14 20:59:55;;;;;;;0.20;0.10;;;;;;;;;;6092446;23;20158;-89
2022/07/14 21:02:22;;;;;;;0.20;0.10;;;;;;;;;;6091486;23;20283;-89
2022/07/14 21:04:48;;;;;;;0.20;0.10;;;;;;;;;;6065923;23;20102;-89
2022/07/14 21:07:16;;;;;;;0.20;0.10;;;;;;;;;;6089923;23;20459;-89
2022/07/14 21:09:43;;;;;;;0.20;0.10;;;;;;;;;;6093299;23;20403;-88
2022/07/14 21:12:09;;;;;;;0.20;0.10;;;;;;;;;;6068038;23;20017;-89
2022/07/14 21:14:35;;;;;;;0.20;0.10;;;;;;;;;;6070390;23;20033;-89
2022/07/14 21:17:01;;;;;;;0.20;0.10;;;;;;;;;;6094447;23;20014;-90
2022/07/14 21:19:27;;;;;;;0.20;0.10;;;;;;;;;;6046223;23;20506;-90
2022/07/14 21:21:53;;;;;;;0.20;0.10;;;;;;;;;;6046345;23;20021;-90
2022/07/14 21:24:19;;;;;;;0.20;0.10;;;;;;;;;;6046183;23;20490;-90
2022/07/14 21:26:45;;;;;;;0.20;0.10;;;;;;;;;;6046953;23;20300;-89
2022/07/14 21:29:11;;;;;;;0.20;0.10;;;;;;;;;;6047951;23;20018;-89
2022/07/14 21:31:38;;;;;;;0.20;0.10;;;;;;;;;;6044548;23;20014;-89
2022/07/14 21:34:04;;;;;;;0.20;0.10;;;;;;;;;;6046630;23;20501;-90
2022/07/14 21:36:30;;;;;;;0.20;0.10;;;;;;;;;;6045884;23;20340;-90
2022/07/14 21:38:56;;;;;;;0.20;0.10;;;;;;;;;;6047211;23;20735;-89
2022/07/14 21:41:23;;;;;;;0.20;0.10;;;;;;;;;;6048607;23;20014;-90
2022/07/14 21:43:50;;;;;;;0.20;0.10;;;;;;;;;;6045646;23;20045;-89
2022/07/14 21:46:16;;;;;;;0.20;0.10;;;;;;;;;;6042290;23;20096;-89
2022/07/14 21:48:42;;;;;;;0.20;0.10;;;;;;;;;;6046370;23;20056;-90
2022/07/14 21:51:08;;;;;;;0.20;0.10;;;;;;;;;;6041342;23;20560;-89
2022/07/14 21:53:35;;;;;;;0.20;0.10;;;;;;;;;;6045695;23;20072;-89
2022/07/14 21:56:01;;;;;;;0.20;0.10;;;;;;;;;;6045545;23;20064;-89
2022/07/14 21:58:27;;;;;;;0.20;0.10;;;;;;;;;;6070542;23;20010;-89
2022/07/14 22:00:54;;;;;;;0.20;0.10;;;;;;;;;;6047825;23;20018;-90
2022/07/14 22:03:20;;;;;;;0.20;0.10;;;;;;;;;;6047022;23;20014;-89
2022/07/14 22:05:46;;;;;;;0.20;0.10;;;;;;;;;;6043689;23;20024;-88
2022/07/14 22:08:12;;;;;;;0.20;0.10;;;;;;;;;;6063836;23;20068;-89
2022/07/14 22:10:40;;;;;;;0.20;0.10;;;;;;;;;;6046740;23;20069;-89
2022/07/14 22:13:07;;;;;;;0.20;0.10;;;;;;;;;;6069255;23;20021;-89
2022/07/14 22:15:33;;;;;;;0.20;0.10;;;;;;;;;;6042190;23;20014;-88
2022/07/14 22:17:59;;;;;;;0.20;0.10;;;;;;;;;;6051467;23;20025;-89
2022/07/14 22:20:25;;;;;;;0.20;0.10;;;;;;;;;;6065273;23;20021;-90
2022/07/14 22:22:51;;;;;;;0.20;0.10;;;;;;;;;;6068826;23;20149;-89
2022/07/14 22:25:18;;;;;;;0.20;0.10;;;;;;;;;;6095780;23;20024;-90
2022/07/14 22:27:44;;;;;;;0.20;0.10;;;;;;;;;;6096161;23;20021;-89
2022/07/14 22:30:10;;;;;;;0.20;0.10;;;;;;;;;;6072045;23;20018;-90
2022/07/14 22:32:37;;;;;;;0.20;0.10;;;;;;;;;;6071676;23;20018;-90
2022/07/14 22:35:03;;;;;;;0.20;0.10;;;;;;;;;;6095553;23;20243;-90
2022/07/14 22:37:29;;;;;;;0.20;0.10;;;;;;;;;;6093752;23;20014;-90
2022/07/14 22:39:55;;;;;;;0.20;0.10;;;;;;;;;;6090248;23;20046;-90
2022/07/14 22:42:21;;;;;;;0.20;0.10;;;;;;;;;;6091828;23;20021;-89
2022/07/14 22:44:48;;;;;;;0.20;0.10;;;;;;;;;;6091696;23;20045;-90
2022/07/14 22:47:15;;;;;;;0.20;0.10;;;;;;;;;;6068478;23;20022;-90
2022/07/14 22:49:41;;;;;;;0.20;0.10;;;;;;;;;;6068060;23;20018;-90
2022/07/14 22:52:07;;;;;;;0.20;0.10;;;;;;;;;;6091603;23;20013;-90
2022/07/14 22:54:34;;;;;;;0.20;0.10;;;;;;;;;;6092690;23;20358;-90
2022/07/14 22:57:02;;;;;;;0.20;0.10;;;;;;;;;;6065714;23;20299;-89
2022/07/14 22:59:28;;;;;;;0.20;0.10;;;;;;;;;;6068126;23;20022;-90
2022/07/14 23:01:54;;;;;;;0.20;0.10;;;;;;;;;;6066913;23;20046;-89
2022/07/14 23:04:21;;;;;;;0.20;0.10;;;;;;;;;;6069629;23;20164;-89
2022/07/14 23:06:47;;;;;;;0.20;0.10;;;;;;;;;;6069359;23;20481;-89
2022/07/14 23:09:14;;;;;;;0.25;0.20;;;;;;;;;;6097971;23;20029;-89
2022/07/14 23:14:25;;;;;;;0.20;0.10;;;;;;;;;;6120336;23;20373;-89
2022/07/14 23:16:51;;;;;;;0.20;0.10;;;;;;;;;;6070078;23;20654;-89
2022/07/14 23:19:18;;;;;;;0.20;0.10;;;;;;;;;;6069335;23;20017;-89
2022/07/14 23:21:44;;;;;;;0.20;0.10;;;;;;;;;;6070212;23;20052;-90
2022/07/14 23:24:10;;;;;;;0.20;0.10;;;;;;;;;;6093017;23;20018;-89
2022/07/14 23:26:36;;;;;;;0.20;0.10;;;;;;;;;;6069450;23;20515;-90
2022/07/14 23:29:02;;;;;;;0.20;0.10;;;;;;;;;;6095526;23;20014;-90
2022/07/14 23:31:29;;;;;;;0.20;0.10;;;;;;;;;;6094287;23;20010;-90
2022/07/14 23:33:57;;;;;;;0.20;0.10;;;;;;;;;;6093874;23;20022;-89
2022/07/14 23:36:23;;;;;;;0.20;0.10;;;;;;;;;;6067445;23;20014;-90
2022/07/14 23:38:50;;;;;;;0.20;0.10;;;;;;;;;;6094634;23;20018;-89
2022/07/14 23:41:16;;;;;;;0.20;0.10;;;;;;;;;;6093664;23;20009;-89
2022/07/14 23:43:42;;;;;;;0.20;0.10;;;;;;;;;;6075364;23;20367;-89
2022/07/14 23:46:08;;;;;;;0.20;0.10;;;;;;;;;;6092926;23;20018;-90
2022/07/14 23:48:35;;;;;;;0.20;0.10;;;;;;;;;;6069893;23;20025;-90
2022/07/14 23:51:01;;;;;;;0.20;0.10;;;;;;;;;;6093246;23;20018;-91
2022/07/14 23:53:27;;;;;;;0.20;0.10;;;;;;;;;;6068865;23;20024;-89
2022/07/14 23:55:53;;;;;;;0.20;0.10;;;;;;;;;;6070170;23;20022;-90
2022/07/14 23:58:20;;;;;;;0.20;0.10;;;;;;;;;;6070222;23;20636;-90
